Terminal Aerodrome Forecast
Issued by NWS Charleston, WV

Home | Current Version | Previous Version | Text Only | Print | Product List | Glossary On
Versions: 1 2 3 4 5 6 7 8 9 10 11 12 13 14 15 16 17 18 19 20 21 22 23
000
FTUS41 KRLX 170547 AAB
TAFCRW
TAF AMD
KCRW 170547Z 1706/1806 00000KT 6SM -SN OVC015
     FM171100 00000KT 6SM -SHSN BKN025
     FM171600 28003KT P6SM SCT025
     FM180300 25004KT P6SM SCT150=

USA.gov is the U.S. government's official web portal to all federal, state and local government web resources and services.